Time;durP1;ratioP1;P1;durP2;ratioP2;P2;SDS_P1;SDS_P2;PMS_P1;PMS_P2;Temp;Humidity;BMP_temperature;BMP_pressure;BME280_temperature;BME280_humidity;BME280_pressure;Samples;Min_cycle;Max_cycle;Signal;HPM_P1;HPM_P2
2023/01/14 00:01:38;;;;;;;7.20;1.67;;;9.40;99.90;;;9.36;100.00;101103.00;5262962;28;20553;-70
2023/01/14 00:04:12;;;;;;;8.05;1.48;;;9.40;99.90;;;9.34;100.00;101099.47;5263186;28;20048;-70
2023/01/14 00:06:44;;;;;;;11.23;2.00;;;9.40;99.90;;;9.35;100.00;101096.03;5261601;28;20036;-70
2023/01/14 00:09:16;;;;;;;8.15;1.70;;;9.40;99.90;;;9.33;100.00;101087.28;5256020;28;20044;-69
2023/01/14 00:11:52;;;;;;;6.30;1.40;;;9.40;99.90;;;9.34;100.00;101088.16;5249683;28;20051;-71
2023/01/14 00:14:29;;;;;;;5.40;1.30;;;9.40;99.90;;;9.34;100.00;101076.06;5249255;28;20385;-69
2023/01/14 00:17:02;;;;;;;9.70;1.80;;;9.40;99.90;;;9.33;100.00;101079.47;5250991;28;20028;-71
2023/01/14 00:19:39;;;;;;;6.32;1.27;;;9.40;99.90;;;9.32;100.00;101072.47;5248973;28;20048;-70
2023/01/14 00:22:11;;;;;;;8.65;1.63;;;9.40;99.90;;;9.34;100.00;101057.84;5241943;28;20037;-70
2023/01/14 00:24:43;;;;;;;6.55;1.42;;;9.40;99.90;;;9.31;100.00;101052.47;5241888;28;20080;-70
2023/01/14 00:27:17;;;;;;;6.90;1.40;;;9.40;99.90;;;9.31;100.00;101062.88;5241665;28;20045;-70
2023/01/14 00:29:49;;;;;;;7.40;1.35;;;9.40;99.90;;;9.29;100.00;101055.84;5241531;28;20043;-70
2023/01/14 00:32:21;;;;;;;6.28;1.27;;;9.40;99.90;;;9.28;100.00;101061.88;5240510;28;20525;-70
2023/01/14 00:34:54;;;;;;;6.70;1.13;;;9.30;99.90;;;9.28;100.00;101062.78;5252203;28;20420;-70
2023/01/14 00:37:26;;;;;;;6.38;1.27;;;9.30;99.90;;;9.28;100.00;101067.09;5260820;28;20040;-70
2023/01/14 00:39:58;;;;;;;5.15;1.67;;;9.30;99.90;;;9.23;100.00;101070.34;5262100;28;20404;-70
2023/01/14 00:42:30;;;;;;;5.70;1.25;;;9.30;99.90;;;9.21;100.00;101076.31;5262148;28;20040;-70
2023/01/14 00:45:04;;;;;;;3.22;1.23;;;9.30;99.90;;;9.18;100.00;101076.16;5261105;28;20055;-70
2023/01/14 00:47:36;;;;;;;10.70;1.50;;;9.30;99.90;;;9.16;100.00;101067.44;5260304;28;20047;-69
2023/01/14 00:50:11;;;;;;;6.40;1.25;;;9.20;99.90;;;9.11;100.00;101069.81;5260351;28;20040;-70
2023/01/14 00:52:43;;;;;;;9.63;1.80;;;9.20;99.90;;;9.09;100.00;101065.38;5262474;28;20050;-70
2023/01/14 00:55:15;;;;;;;8.75;1.23;;;9.20;99.90;;;9.05;100.00;101079.03;5278140;28;20230;-70
2023/01/14 00:57:47;;;;;;;5.60;1.52;;;9.10;99.90;;;9.02;100.00;101078.91;5262064;28;20212;-70
2023/01/14 01:00:20;;;;;;;6.63;1.48;;;9.10;99.90;;;9.02;100.00;101078.91;5247453;28;20049;-70
2023/01/14 01:02:55;;;;;;;7.10;1.50;;;9.10;99.90;;;8.98;100.00;101078.75;5246588;28;20044;-70
2023/01/14 01:05:29;;;;;;;4.60;1.13;;;9.10;99.90;;;8.98;100.00;101081.38;5246364;28;20056;-70
2023/01/14 01:08:05;;;;;;;5.65;1.23;;;9.10;99.90;;;8.98;100.00;101088.28;5227991;28;20033;-70
2023/01/14 01:10:38;;;;;;;3.85;1.20;;;9.10;99.90;;;8.99;100.00;101090.06;5228420;28;20453;-70
2023/01/14 01:13:11;;;;;;;3.80;0.85;;;9.10;99.90;;;8.96;100.00;101085.63;5228097;28;20475;-70
2023/01/14 01:15:44;;;;;;;3.97;1.15;;;9.10;99.90;;;8.94;100.00;101095.06;5225444;28;20409;-69
2023/01/14 01:18:19;;;;;;;4.10;1.02;;;9.00;99.90;;;8.94;100.00;101091.56;5262132;28;20581;-70
2023/01/14 01:21:02;;;;;;;7.97;1.40;;;9.00;99.90;;;8.92;100.00;101099.28;5246097;28;20148;-70
2023/01/14 01:23:40;;;;;;;5.45;1.30;;;9.00;99.90;;;8.90;100.00;101095.72;5247394;28;20047;-70
2023/01/14 01:26:15;;;;;;;4.70;1.50;;;9.00;99.90;;;8.90;100.00;101100.94;5246540;28;20052;-70
2023/01/14 01:28:50;;;;;;;5.05;1.38;;;9.00;99.90;;;8.93;100.00;101100.16;5246182;28;20475;-70
2023/01/14 01:31:23;;;;;;;5.38;1.40;;;9.00;99.90;;;8.91;100.00;101107.00;5245645;28;20431;-69
2023/01/14 01:33:58;;;;;;;7.15;1.70;;;9.00;99.90;;;8.93;100.00;101103.69;5247451;28;20043;-70
2023/01/14 01:36:32;;;;;;;12.75;1.90;;;9.00;99.90;;;8.93;100.00;101102.78;5247539;28;20049;-70
2023/01/14 01:39:04;;;;;;;6.75;1.13;;;9.00;99.90;;;8.94;100.00;101102.88;5245302;28;20404;-70
2023/01/14 01:41:37;;;;;;;11.75;1.92;;;9.00;99.90;;;8.97;100.00;101104.69;5247432;28;20509;-70
2023/01/14 01:44:48;;;;;;;8.00;1.48;;;9.00;99.90;;;8.98;100.00;101101.28;5247181;28;20045;-70
2023/01/14 01:47:22;;;;;;;6.13;1.45;;;9.00;99.90;;;8.97;100.00;101103.00;5220682;28;20044;-69
2023/01/14 01:49:55;;;;;;;7.97;2.05;;;9.00;99.90;;;8.97;100.00;101115.09;5245453;28;20045;-70
2023/01/14 01:52:30;;;;;;;8.27;1.65;;;9.00;99.90;;;8.96;100.00;101109.00;5247191;28;20094;-70
2023/01/14 01:55:09;;;;;;;8.20;1.50;;;9.00;99.90;;;8.96;100.00;101119.41;5247446;28;20052;-70
2023/01/14 01:57:43;;;;;;;5.88;1.23;;;9.00;99.90;;;8.96;100.00;101122.03;5245476;28;20475;-70
2023/01/14 02:00:15;;;;;;;4.28;1.13;;;9.10;99.90;;;8.97;100.00;101118.59;5244865;28;20044;-69
2023/01/14 02:02:57;;;;;;;5.28;1.20;;;9.00;99.90;;;8.97;100.00;101112.50;5224684;28;20475;-70
2023/01/14 02:05:31;;;;;;;4.47;0.73;;;9.10;99.90;;;8.99;100.00;101100.44;5244559;28;20040;-69
2023/01/14 02:08:06;;;;;;;4.35;0.95;;;9.10;99.90;;;8.98;100.00;101104.75;5236611;28;20051;-70
2023/01/14 02:11:17;;;;;;;4.53;1.05;;;9.10;99.90;;;9.00;100.00;101114.34;5260956;28;20048;-69
2023/01/14 02:14:00;;;;;;;4.38;1.10;;;9.10;99.90;;;8.98;100.00;101109.97;5246693;28;20114;-70
2023/01/14 02:17:02;;;;;;;3.55;1.17;;;9.10;99.90;;;9.01;100.00;101106.63;5246397;28;20071;-70
2023/01/14 02:19:59;;;;;;;3.97;0.82;;;9.10;99.90;;;9.00;100.00;101106.53;5246198;28;20044;-71
2023/01/14 02:23:08;;;;;;;4.18;0.82;;;9.10;99.90;;;9.00;100.00;101101.34;5245248;28;20052;-70
2023/01/14 02:26:18;;;;;;;10.98;1.55;;;9.10;99.90;;;8.99;100.00;101095.25;5245501;28;20048;-70
2023/01/14 02:29:44;;;;;;;4.03;0.93;;;9.10;99.90;;;8.97;100.00;101087.38;5244203;28;20135;-70
2023/01/14 02:32:28;;;;;;;5.97;1.35;;;9.10;99.90;;;8.95;100.00;101086.44;5161696;28;20129;-70
2023/01/14 02:35:15;;;;;;;4.60;1.42;;;9.10;99.90;;;8.95;100.00;101089.03;5145723;28;20129;-69
2023/01/14 02:37:56;;;;;;;5.90;1.20;;;9.00;99.90;;;8.93;100.00;101085.50;5213422;28;20122;-70
2023/01/14 02:40:32;;;;;;;;;;;9.00;99.90;;;8.93;100.00;101088.09;5240741;28;20048;-70
2023/01/14 02:46:08;;;;;;;5.35;1.05;;;9.00;99.90;;;8.91;100.00;101087.09;5245773;28;20093;-70
2023/01/14 02:48:44;;;;;;;4.20;0.95;;;9.00;99.90;;;8.94;100.00;101089.88;5244361;28;20131;-70
2023/01/14 02:51:17;;;;;;;3.95;1.00;;;9.00;99.90;;;8.92;100.00;101077.59;5232555;28;20095;-70
2023/01/14 02:53:49;;;;;;;5.43;1.08;;;9.00;99.90;;;8.92;100.00;101078.47;5223799;28;20061;-70
2023/01/14 02:56:23;;;;;;;8.20;1.55;;;9.00;99.90;;;8.89;100.00;101070.56;5223520;28;20116;-70
2023/01/14 02:59:31;;;;;;;6.97;1.15;;;9.00;99.90;;;8.85;100.00;101066.03;5223352;28;20056;-70
2023/01/14 03:02:37;;;;;;;6.63;1.08;;;9.00;99.90;;;8.81;100.00;101069.31;5223853;28;20139;-71
2023/01/14 03:05:33;;;;;;;5.65;1.02;;;8.90;99.90;;;8.80;100.00;101071.81;5223476;28;20053;-70
2023/01/14 03:08:19;;;;;;;4.20;1.13;;;8.90;99.90;;;8.75;100.00;101056.03;5223307;28;20205;-70
2023/01/14 03:11:00;;;;;;;4.93;0.90;;;8.80;99.90;;;8.73;100.00;101046.38;5223347;28;20144;-69
2023/01/14 03:13:39;;;;;;;3.80;0.85;;;8.80;99.90;;;8.69;100.00;101037.56;5223532;28;20045;-70
2023/01/14 03:16:21;;;;;;;3.08;1.05;;;8.80;99.90;;;8.63;100.00;101032.97;5223976;28;20056;-70
2023/01/14 03:18:58;;;;;;;;;;;8.80;99.90;;;8.58;100.00;101028.38;5224001;28;20053;-70
2023/01/14 03:21:36;;;;;;;4.95;1.05;;;8.70;99.90;;;8.51;100.00;101023.72;5235285;28;19920;-70
2023/01/14 03:24:15;;;;;;;7.65;1.25;;;8.60;99.90;;;8.46;100.00;101028.69;5245528;28;20048;-70
2023/01/14 03:26:48;;;;;;;4.60;1.60;;;8.60;99.90;;;8.42;100.00;101022.47;5244211;28;20048;-70
2023/01/14 03:29:29;;;;;;;6.07;1.08;;;8.50;99.90;;;8.40;100.00;101021.47;5243730;28;20451;-70
2023/01/14 03:32:08;;;;;;;6.53;1.38;;;8.50;99.90;;;8.38;100.00;101022.25;5244670;28;20040;-71
2023/01/14 03:34:48;;;;;;;5.65;1.10;;;8.50;99.90;;;8.35;100.00;101007.41;5243938;28;20386;-70
2023/01/14 03:37:26;;;;;;;5.03;1.20;;;8.50;99.90;;;8.33;100.00;101009.00;5260782;28;20052;-70
2023/01/14 03:40:03;;;;;;;7.38;1.55;;;8.50;99.90;;;8.30;100.00;101006.28;5244862;28;20111;-70
2023/01/14 03:42:44;;;;;;;8.18;1.10;;;8.40;99.90;;;8.27;100.00;101008.72;5245107;28;20064;-70
2023/01/14 03:45:20;;;;;;;5.05;1.48;;;8.40;99.90;;;8.23;100.00;101006.81;5245220;28;20036;-70
2023/01/14 03:47:52;;;;;;;7.57;1.30;;;8.40;99.90;;;8.19;100.00;100998.78;5244872;28;20048;-70
2023/01/14 03:50:32;;;;;;;4.07;1.15;;;8.30;99.90;;;8.16;100.00;101002.13;5244831;28;20090;-70
2023/01/14 03:53:21;;;;;;;5.20;1.10;;;8.30;99.90;;;8.14;100.00;101001.16;5243955;28;20051;-70
2023/01/14 03:56:03;;;;;;;5.75;1.08;;;8.20;99.90;;;8.11;100.00;100994.13;5243844;28;20501;-70
2023/01/14 03:58:43;;;;;;;6.05;1.63;;;8.20;99.90;;;8.10;100.00;100997.53;5260654;28;20048;-70
2023/01/14 04:01:20;;;;;;;5.47;1.38;;;8.20;99.90;;;8.09;100.00;100984.50;5244611;28;20040;-71
2023/01/14 04:03:53;;;;;;;7.20;1.80;;;8.20;99.90;;;8.08;100.00;100998.25;5245273;28;20044;-70
2023/01/14 04:06:25;;;;;;;8.77;1.17;;;8.20;99.90;;;8.09;100.00;101005.25;5245057;28;20166;-70
2023/01/14 04:08:59;;;;;;;7.25;1.70;;;8.20;99.90;;;8.07;100.00;100996.47;5244880;28;20128;-70
2023/01/14 04:11:31;;;;;;;7.22;1.58;;;8.20;99.90;;;8.06;100.00;101002.50;5244587;28;20052;-70
2023/01/14 04:16:52;;;;;;;6.13;1.23;;;8.20;99.90;;;8.04;100.00;100991.16;5245138;28;20048;-69
2023/01/14 04:19:25;;;;;;;8.77;1.88;;;8.20;99.90;;;8.02;100.00;100984.97;5244274;28;20047;-69
2023/01/14 04:21:57;;;;;;;12.13;1.65;;;8.20;99.90;;;8.01;100.00;100980.63;5244753;28;20493;-69
2023/01/14 04:24:31;;;;;;;6.72;1.48;;;8.20;99.90;;;8.00;100.00;100981.44;5244931;28;20052;-69
2023/01/14 04:27:03;;;;;;;10.88;1.35;;;8.20;99.90;;;8.00;100.00;100978.84;5244848;28;20052;-70
2023/01/14 04:29:35;;;;;;;5.63;1.38;;;8.20;99.90;;;8.00;100.00;100969.34;5244635;28;20045;-70
2023/01/14 04:32:07;;;;;;;8.68;1.67;;;8.20;99.90;;;8.01;100.00;100959.84;5244733;28;20036;-70
2023/01/14 04:34:39;;;;;;;4.50;1.20;;;8.10;99.90;;;7.99;100.00;100969.28;5246646;28;20055;-70
2023/01/14 04:37:12;;;;;;;3.80;1.25;;;8.10;99.90;;;8.01;100.00;100965.91;5248509;28;20051;-70
2023/01/14 04:39:45;;;;;;;6.50;1.27;;;8.20;99.90;;;8.02;100.00;100962.53;5248243;28;20052;-71
2023/01/14 04:42:27;;;;;;;6.38;1.30;;;8.10;99.90;;;8.01;100.00;100955.53;5248339;28;20051;-69
2023/01/14 04:45:02;;;;;;;9.35;1.50;;;8.20;99.90;;;8.03;100.00;100951.34;5248345;28;20054;-70
2023/01/14 04:47:35;;;;;;;5.93;1.40;;;8.20;99.90;;;8.04;100.00;100954.81;5248171;28;20140;-70
2023/01/14 04:53:06;;;;;;;10.65;1.70;;;8.20;99.90;;;8.01;100.00;100942.56;5248166;28;20359;-69
2023/01/14 04:55:43;;;;;;;8.55;1.23;;;8.20;99.90;;;8.03;100.00;100942.66;5248111;28;20076;-69
2023/01/14 04:58:18;;;;;;;7.88;1.45;;;8.20;99.90;;;8.02;100.00;100930.47;5248214;28;20400;-69
2023/01/14 05:00:50;;;;;;;8.00;1.40;;;8.20;99.90;;;8.01;100.00;100929.56;5248020;28;20063;-70
2023/01/14 05:03:22;;;;;;;6.60;1.50;;;8.20;99.90;;;8.01;100.00;100923.50;5248137;28;20049;-70
2023/01/14 05:05:54;;;;;;;7.65;1.92;;;8.20;99.90;;;8.02;100.00;100925.28;5246641;28;20052;-69
2023/01/14 05:08:27;;;;;;;4.55;1.20;;;8.20;99.90;;;8.04;100.00;100914.16;5247851;28;20040;-70
2023/01/14 05:11:00;;;;;;;9.10;1.45;;;8.20;99.90;;;8.08;100.00;100920.38;5247802;28;20058;-70
2023/01/14 05:13:34;;;;;;;8.27;1.30;;;8.20;99.90;;;8.08;100.00;100916.06;5247771;28;20047;-69
2023/01/14 05:18:37;;;;;;;6.35;1.67;;;8.20;99.90;;;8.07;100.00;100908.22;5167517;28;20038;-72
2023/01/14 05:21:09;;;;;;;10.23;2.70;;;8.20;99.90;;;8.06;100.00;100904.72;5180515;28;20049;-71
2023/01/14 05:23:41;;;;;;;7.35;1.60;;;8.20;99.90;;;8.06;100.00;100896.06;5182949;28;20502;-71
2023/01/14 05:26:15;;;;;;;5.93;1.20;;;8.20;99.90;;;8.05;100.00;100891.69;5186155;28;20494;-71
2023/01/14 05:28:47;;;;;;;7.93;1.45;;;8.20;99.90;;;8.05;100.00;100889.97;5185775;28;20057;-72
2023/01/14 05:31:19;;;;;;;5.90;1.02;;;8.20;99.90;;;8.04;100.00;100892.50;5186098;28;20477;-71
2023/01/14 05:33:51;;;;;;;5.63;1.20;;;8.20;99.90;;;8.04;100.00;100889.91;5184871;28;20453;-71
2023/01/14 05:36:23;;;;;;;7.15;1.10;;;8.20;99.90;;;8.05;100.00;100883.91;5185988;28;20529;-71
2023/01/14 05:38:55;;;;;;;4.10;1.25;;;8.20;99.90;;;8.06;100.00;100877.88;5185550;28;20042;-71
2023/01/14 05:41:29;;;;;;;6.05;1.45;;;8.20;99.90;;;8.07;100.00;100874.47;5185792;28;20046;-71
2023/01/14 05:46:52;;;;;;;3.92;1.23;;;8.20;99.90;;;8.09;100.00;100870.25;5185758;28;20521;-71
2023/01/14 05:49:24;;;;;;;9.75;1.60;;;8.20;99.90;;;8.12;100.00;100872.97;5185098;28;20203;-71
2023/01/14 05:51:56;;;;;;;12.40;2.08;;;8.20;99.90;;;8.11;100.00;100864.28;5185814;28;20477;-71
2023/01/14 05:54:28;;;;;;;8.02;1.63;;;8.30;99.90;;;8.11;100.00;100851.31;5185749;28;20104;-72
2023/01/14 05:57:02;;;;;;;7.65;1.70;;;8.30;99.90;;;8.12;100.00;100849.59;5184293;28;20062;-71
2023/01/14 05:59:34;;;;;;;4.47;1.02;;;8.20;99.90;;;8.13;100.00;100847.06;5183860;28;20521;-71
2023/01/14 06:07:57;;;;;;;8.80;1.67;;;8.30;99.90;;;8.17;100.00;100824.75;5182957;28;20053;-71
2023/01/14 06:10:29;;;;;;;4.93;1.40;;;8.30;99.90;;;8.18;100.00;100812.63;5183356;28;20281;-71
2023/01/14 06:13:06;;;;;;;4.93;1.50;;;8.30;99.90;;;8.17;100.00;100819.53;5185421;28;20048;-72
2023/01/14 06:15:39;;;;;;;3.83;1.13;;;8.30;99.90;;;8.18;100.00;100813.53;5184080;28;20046;-71
2023/01/14 06:18:14;;;;;;;7.03;2.22;;;8.30;99.90;;;8.16;100.00;100809.97;5185258;28;20392;-71
2023/01/14 06:20:46;;;;;;;7.30;2.05;;;8.30;99.90;;;8.17;100.00;100806.56;5184563;28;20066;-71
2023/01/14 06:23:19;;;;;;;6.35;1.80;;;8.30;99.90;;;8.18;100.00;100799.66;5185105;28;20045;-72
2023/01/14 06:25:51;;;;;;;7.53;2.00;;;8.30;99.90;;;8.19;100.00;100797.13;5185117;28;20124;-72
2023/01/14 06:28:25;;;;;;;8.55;1.45;;;8.30;99.90;;;8.20;100.00;100795.41;5185000;28;20503;-71
2023/01/14 06:30:57;;;;;;;9.27;1.85;;;8.30;99.90;;;8.18;100.00;100782.38;5184401;28;20052;-72
2023/01/14 06:33:29;;;;;;;11.52;2.28;;;8.30;99.90;;;8.20;100.00;100780.72;5184512;28;20410;-72
2023/01/14 06:36:02;;;;;;;7.30;1.88;;;8.30;99.90;;;8.16;100.00;100773.63;5184946;28;20394;-74
2023/01/14 06:38:34;;;;;;;8.75;1.73;;;8.30;99.90;;;8.20;100.00;100765.13;5185103;28;20131;-70
2023/01/14 06:41:09;;;;;;;9.00;2.08;;;8.30;99.90;;;8.20;100.00;100765.13;5182793;28;20046;-73
2023/01/14 06:43:44;;;;;;;5.47;1.65;;;8.30;99.90;;;8.16;100.00;100760.66;5184524;28;20111;-73
2023/01/14 06:46:17;;;;;;;7.65;1.52;;;8.30;99.90;;;8.14;100.00;100749.28;5184516;28;20057;-73
2023/01/14 06:48:50;;;;;;;7.30;1.35;;;8.30;99.90;;;8.14;100.00;100749.28;5184192;28;20049;-76
2023/01/14 06:51:22;;;;;;;7.60;2.00;;;8.30;99.90;;;8.18;100.00;100740.81;5183193;28;20054;-73
2023/01/14 06:53:55;;;;;;;6.65;1.67;;;8.30;99.90;;;8.16;100.00;100739.88;5184298;28;20073;-71
2023/01/14 06:56:27;;;;;;;12.75;2.05;;;8.30;99.90;;;8.15;100.00;100730.31;5182715;28;20046;-71
2023/01/14 06:59:00;;;;;;;6.57;1.45;;;8.30;99.90;;;8.18;100.00;100722.63;5184377;28;20045;-71
2023/01/14 07:01:32;;;;;;;10.15;1.55;;;8.30;99.90;;;8.18;100.00;100720.03;5184693;28;20046;-71
2023/01/14 07:04:05;;;;;;;5.38;1.33;;;8.30;99.90;;;8.18;100.00;100720.03;5184538;28;20042;-60
2023/01/14 07:06:37;;;;;;;7.60;1.63;;;8.30;99.90;;;8.17;100.00;100707.88;5184125;28;20482;-59
2023/01/14 07:09:09;;;;;;;6.07;1.75;;;8.30;99.90;;;8.15;100.00;100701.75;5183746;28;20038;-60
2023/01/14 07:11:42;;;;;;;5.63;1.50;;;8.30;99.90;;;8.13;100.00;100696.47;5183949;28;20042;-60
2023/01/14 07:14:16;;;;;;;6.10;1.75;;;8.30;99.90;;;8.14;100.00;100690.44;5183851;28;20050;-60
2023/01/14 07:16:48;;;;;;;9.57;2.15;;;8.30;99.90;;;8.15;100.00;100686.19;5183644;28;20057;-61
2023/01/14 07:19:20;;;;;;;5.28;1.77;;;8.30;99.90;;;8.15;100.00;100688.78;5183331;28;20046;-62
2023/01/14 07:21:52;;;;;;;6.80;1.60;;;8.30;99.90;;;8.18;100.00;100678.50;5183774;28;20042;-60
2023/01/14 07:24:24;;;;;;;9.80;1.75;;;8.30;99.90;;;8.20;100.00;100682.03;5183520;28;20065;-59
2023/01/14 07:26:56;;;;;;;6.00;1.52;;;8.40;99.90;;;8.19;100.00;100680.28;5183662;28;20050;-65
2023/01/14 07:29:30;;;;;;;5.30;1.65;;;8.30;99.90;;;8.21;100.00;100673.41;5183070;28;20045;-63
2023/01/14 07:32:02;;;;;;;7.50;1.83;;;8.30;99.90;;;8.21;100.00;100667.34;5183870;28;20426;-61
2023/01/14 07:34:34;;;;;;;6.38;1.50;;;8.30;99.90;;;8.21;100.00;100657.84;5182217;28;20557;-61
2023/01/14 07:37:06;;;;;;;4.57;1.65;;;8.30;99.90;;;8.23;100.00;100653.63;5182036;28;20050;-61
2023/01/14 07:39:38;;;;;;;7.18;1.73;;;8.30;99.90;;;8.22;100.00;100649.25;5182450;28;20112;-59
2023/01/14 07:42:11;;;;;;;9.07;1.92;;;8.30;99.90;;;8.23;100.00;100645.84;5183130;28;20133;-63
2023/01/14 07:44:44;;;;;;;9.55;1.83;;;8.30;99.90;;;8.24;100.00;100641.53;5183193;28;20052;-59
2023/01/14 07:47:17;;;;;;;11.27;2.17;;;8.40;99.90;;;8.25;100.00;100636.38;5183378;28;20041;-62
2023/01/14 07:49:50;;;;;;;10.70;1.88;;;8.40;99.90;;;8.21;100.00;100611.09;5183590;28;20046;-59
2023/01/14 07:52:22;;;;;;;6.60;2.20;;;8.30;99.90;;;8.15;100.00;100614.34;5183633;28;20232;-59
2023/01/14 07:54:54;;;;;;;10.15;1.90;;;8.30;99.90;;;8.15;100.00;100606.56;5183301;28;20095;-59
2023/01/14 07:57:26;;;;;;;7.43;1.63;;;8.30;99.90;;;8.14;100.00;100593.50;5183367;28;20578;-59
2023/01/14 07:59:59;;;;;;;8.48;1.88;;;8.30;99.90;;;8.09;100.00;100580.34;5183578;28;20209;-60
2023/01/14 08:02:31;;;;;;;13.07;2.60;;;8.30;99.90;;;8.05;100.00;100562.88;5183204;28;20073;-59
2023/01/14 08:05:04;;;;;;;8.27;1.98;;;8.20;99.90;;;7.95;100.00;100550.31;5183215;28;20049;-61
2023/01/14 08:07:37;;;;;;;13.18;2.00;;;8.20;99.90;;;7.92;100.00;100560.59;5183161;28;20046;-59
2023/01/14 08:10:11;;;;;;;7.60;1.75;;;8.10;99.90;;;7.88;100.00;100559.56;5186292;28;20410;-60
2023/01/14 08:12:43;;;;;;;10.30;1.73;;;8.10;99.90;;;7.95;100.00;100583.19;5187405;28;20069;-60
2023/01/14 08:15:16;;;;;;;8.88;1.75;;;8.20;99.90;;;7.94;100.00;100578.81;5187291;28;20407;-60
2023/01/14 08:17:49;;;;;;;8.70;1.80;;;8.10;99.90;;;7.97;100.00;100584.16;5187084;28;20054;-61
2023/01/14 08:20:22;;;;;;;9.38;1.95;;;8.20;99.90;;;8.01;100.00;100586.03;5187092;28;20095;-61
2023/01/14 08:22:58;;;;;;;8.43;1.92;;;8.20;99.90;;;8.04;100.00;100587.06;5187277;28;20541;-60
2023/01/14 08:25:30;;;;;;;7.32;1.60;;;8.20;99.90;;;8.30;100.00;100590.72;5186985;28;20459;-60
2023/01/14 08:28:02;;;;;;;13.15;2.83;;;8.50;99.90;;;8.39;100.00;100580.72;5186988;28;20045;-60
2023/01/14 08:30:36;;;;;;;8.60;2.03;;;8.60;99.90;;;8.40;100.00;100566.91;5187040;28;20491;-60
2023/01/14 08:33:08;;;;;;;11.02;2.13;;;8.60;99.90;;;8.40;100.00;100543.53;5186944;28;20050;-58
2023/01/14 08:35:41;;;;;;;6.45;1.65;;;8.60;99.90;;;8.45;100.00;100542.84;5187127;28;20045;-60
2023/01/14 08:38:13;;;;;;;7.85;2.03;;;8.60;99.90;;;8.52;100.00;100544.84;5186355;28;20041;-66
2023/01/14 08:40:47;;;;;;;5.65;1.48;;;8.70;99.90;;;8.56;100.00;100549.34;5185564;28;20166;-63
2023/01/14 08:43:20;;;;;;;20.58;2.67;;;8.70;99.90;;;8.61;100.00;100534.81;5186595;28;20046;-60
2023/01/14 08:45:54;;;;;;;10.48;2.20;;;8.80;99.90;;;8.56;100.00;100538.94;5186911;28;20041;-60
2023/01/14 08:48:26;;;;;;;6.75;1.60;;;8.70;99.90;;;8.52;100.00;100522.34;5186512;28;20060;-62
2023/01/14 08:51:01;;;;;;;6.93;2.05;;;8.70;99.90;;;8.49;100.00;100523.97;5186622;28;20067;-61
2023/01/14 08:53:36;;;;;;;8.48;2.63;;;8.60;99.90;;;8.49;100.00;100510.97;5185279;28;20050;-60
2023/01/14 08:56:14;;;;;;;11.55;1.60;;;8.60;99.90;;;8.49;100.00;100518.75;5186574;28;20042;-61
2023/01/14 08:58:46;;;;;;;6.32;1.50;;;8.60;99.90;;;8.48;100.00;100493.63;5186548;28;20104;-60
2023/01/14 09:01:20;;;;;;;9.32;2.42;;;8.60;99.90;;;8.47;100.00;100484.91;5169388;28;20473;-61
2023/01/14 09:03:53;;;;;;;6.15;1.42;;;8.60;99.90;;;8.48;100.00;100481.50;5165813;28;20053;-61
2023/01/14 09:06:25;;;;;;;6.45;1.50;;;8.60;99.90;;;8.51;100.00;100457.34;5165901;28;20129;-62
2023/01/14 09:17:28;;;;;;;4.22;1.30;;;8.70;99.90;;;8.64;100.00;100433.59;5164321;28;20112;-61
2023/01/14 09:20:03;;;;;;;6.53;1.60;;;8.70;99.90;;;8.65;100.00;100419.78;5165960;28;20122;-61
2023/01/14 09:22:35;;;;;;;6.47;1.10;;;8.70;99.90;;;8.66;100.00;100429.34;5166130;28;20054;-60
2023/01/14 09:25:09;;;;;;;5.57;1.20;;;8.80;99.90;;;8.67;100.00;100429.41;5165821;28;20043;-61
2023/01/14 09:27:41;;;;;;;3.28;1.15;;;8.80;99.90;;;8.66;100.00;100424.13;5165151;28;20053;-61
2023/01/14 09:30:14;;;;;;;4.30;0.95;;;8.80;99.90;;;8.67;100.00;100416.41;5164085;28;20034;-61
2023/01/14 09:32:47;;;;;;;5.72;1.45;;;8.80;99.90;;;8.67;100.00;100420.69;5165100;28;20503;-61
2023/01/14 09:35:20;;;;;;;7.10;2.03;;;8.80;99.90;;;8.69;100.00;100419.06;5165286;28;20060;-61
2023/01/14 09:37:52;;;;;;;3.60;1.00;;;8.80;99.90;;;8.66;100.00;100414.63;5169076;28;20053;-60
2023/01/14 09:40:24;;;;;;;4.00;1.48;;;8.80;99.90;;;8.67;100.00;100407.72;5185504;28;20042;-60
2023/01/14 09:42:57;;;;;;;6.97;1.50;;;8.80;99.90;;;8.72;100.00;100407.88;5181164;28;20610;-61
2023/01/14 09:45:32;;;;;;;2.90;0.85;;;8.80;99.90;;;8.73;100.00;100400.13;5165329;28;20454;-59
2023/01/14 09:48:13;;;;;;;4.72;0.93;;;8.80;99.90;;;8.77;100.00;100391.63;5165654;28;20039;-60
2023/01/14 09:50:57;;;;;;;6.95;1.25;;;8.90;99.90;;;8.77;100.00;100376.03;5165446;28;20522;-61
2023/01/14 09:53:52;;;;;;;5.72;1.10;;;8.90;99.90;;;8.80;100.00;100365.75;5177059;28;20053;-63
2023/01/14 09:56:29;;;;;;;3.30;1.10;;;8.90;99.90;;;8.77;100.00;100369.97;5185054;28;20050;-65
2023/01/14 09:59:07;;;;;;;4.35;1.08;;;8.90;99.90;;;8.80;100.00;100363.16;5184788;28;20123;-62
2023/01/14 10:01:48;;;;;;;5.30;1.58;;;8.90;99.90;;;8.82;100.00;100348.50;5184778;28;20045;-63
2023/01/14 10:04:49;;;;;;;3.70;1.13;;;8.90;99.90;;;8.81;100.00;100335.47;5185092;28;20049;-60
2023/01/14 10:07:23;;;;;;;4.65;1.02;;;8.90;99.90;;;8.84;100.00;100336.44;5179632;28;20051;-61
2023/01/14 10:09:57;;;;;;;6.13;1.15;;;8.90;99.90;;;8.86;100.00;100324.38;5167438;28;20648;-62
2023/01/14 10:12:36;;;;;;;4.68;0.95;;;9.00;99.90;;;8.88;100.00;100317.53;5184800;28;20041;-60
2023/01/14 10:15:24;;;;;;;9.05;1.90;;;9.00;99.90;;;8.86;100.00;100310.50;5184710;28;20054;-64
2023/01/14 10:18:00;;;;;;;;;;;9.00;99.90;;;8.85;100.00;100280.13;5185181;28;20418;-64
2023/01/14 10:20:40;;;;;;;4.05;1.15;;;8.90;99.90;;;8.86;100.00;100282.78;5184437;28;19932;-60
2023/01/14 10:23:16;;;;;;;3.17;1.30;;;9.00;99.90;;;8.88;100.00;100281.13;5184640;28;20041;-64
2023/01/14 10:25:50;;;;;;;5.15;1.40;;;9.00;99.90;;;8.90;100.00;100269.06;5164365;28;20049;-62
2023/01/14 10:28:25;;;;;;;4.95;1.45;;;9.00;99.90;;;8.89;100.00;100262.09;5164953;28;20038;-60
2023/01/14 10:31:00;;;;;;;3.97;1.40;;;9.00;99.90;;;8.95;100.00;100264.91;5163910;28;20057;-59
2023/01/14 10:33:32;;;;;;;2.78;1.30;;;9.00;99.90;;;8.95;100.00;100240.63;5164098;28;20050;-60
2023/01/14 10:36:14;;;;;;;3.67;1.52;;;9.00;99.90;;;9.00;100.00;100238.16;5164364;28;20503;-61
2023/01/14 10:38:46;;;;;;;4.22;1.10;;;9.10;99.90;;;9.01;100.00;100239.94;5164329;28;20046;-60
2023/01/14 10:41:48;;;;;;;4.38;1.25;;;9.10;99.90;;;9.03;100.00;100233.94;5163006;28;20042;-60
2023/01/14 10:44:16;;;;;;;5.35;1.58;;;9.10;99.90;;;9.05;100.00;100226.19;5163985;28;20460;-64
2023/01/14 10:46:48;;;;;;;2.83;1.30;;;9.20;99.90;;;9.07;100.00;100220.22;5168645;28;20474;-64
2023/01/14 10:49:25;;;;;;;5.07;1.08;;;9.10;99.90;;;9.09;100.00;100218.56;5183537;28;20511;-60
2023/01/14 10:51:58;;;;;;;2.95;1.20;;;9.20;99.90;;;9.12;100.00;100218.63;5165131;28;20450;-61
2023/01/14 10:54:30;;;;;;;5.15;1.20;;;9.20;99.90;;;9.13;100.00;100216.94;5172004;28;20521;-64
2023/01/14 10:57:14;;;;;;;2.58;0.75;;;9.20;99.90;;;9.15;100.00;100197.06;5163670;28;20125;-64
2023/01/14 10:59:51;;;;;;;7.18;1.55;;;9.20;99.90;;;9.15;100.00;100212.66;5163244;28;20046;-64
2023/01/14 11:02:34;;;;;;;2.10;1.10;;;9.20;99.90;;;9.17;100.00;100191.06;5163418;28;20067;-63
2023/01/14 11:05:23;;;;;;;4.22;1.00;;;9.30;99.90;;;9.19;100.00;100193.69;5180219;28;20045;-63
2023/01/14 11:08:00;;;;;;;2.67;0.85;;;9.30;99.90;;;9.20;100.00;100172.09;5183783;28;20073;-64
2023/01/14 11:10:33;;;;;;;3.80;1.15;;;9.30;99.90;;;9.19;100.00;100183.31;5183208;28;20046;-63
2023/01/14 11:13:27;;;;;;;2.92;0.82;;;9.30;99.90;;;9.32;100.00;100162.03;5183651;28;20056;-63
2023/01/14 11:16:00;;;;;;;4.30;1.70;;;9.40;99.90;;;9.36;100.00;100145.69;5182978;28;20121;-64
2023/01/14 11:18:34;;;;;;;3.22;1.20;;;9.50;99.90;;;9.39;100.00;100137.06;5266452;22;20053;-58
2023/01/14 11:21:15;;;;;;;2.13;0.80;;;9.50;99.90;;;9.42;100.00;100137.19;5202681;28;20103;-57
2023/01/14 11:23:57;;;;;;;2.80;0.95;;;9.60;99.90;;;9.41;100.00;100120.69;5204311;28;20059;-57
2023/01/14 11:26:31;;;;;;;1.88;0.93;;;9.50;99.90;;;9.39;100.00;100124.97;5204031;28;20042;-58